createdAt,value
2023-03-17T00:01:54.953Z,62.89
2023-03-17T00:04:27.188Z,62.90
2023-03-17T00:06:55.604Z,62.87
2023-03-17T00:09:25.620Z,63.00
2023-03-17T00:11:55.464Z,62.97
2023-03-17T00:14:24.669Z,62.82
2023-03-17T00:16:53.595Z,62.87
2023-03-17T00:19:26.883Z,63.05
2023-03-17T00:21:59.465Z,63.28
2023-03-17T00:24:28.711Z,63.16
2023-03-17T00:26:57.346Z,63.24
2023-03-17T00:29:27.083Z,63.15
2023-03-17T00:31:57.401Z,63.31
2023-03-17T00:34:32.589Z,63.10
2023-03-17T00:37:02.163Z,62.99
2023-03-17T00:39:30.598Z,62.95
2023-03-17T00:42:24.811Z,62.83
2023-03-17T00:44:55.890Z,62.82
2023-03-17T00:47:25.239Z,62.76
2023-03-17T00:49:53.654Z,62.81
2023-03-17T00:52:23.029Z,62.83
2023-03-17T00:54:51.537Z,62.73
2023-03-17T00:57:19.761Z,62.81
2023-03-17T00:59:50.053Z,62.81
2023-03-17T01:02:22.862Z,63.03
2023-03-17T01:04:59.777Z,63.05
2023-03-17T01:08:05.272Z,63.15
2023-03-17T01:10:33.922Z,63.11
2023-03-17T01:13:06.381Z,63.28
2023-03-17T01:15:35.700Z,63.20
2023-03-17T01:18:10.263Z,63.15
2023-03-17T01:20:41.035Z,63.38
2023-03-17T01:23:10.195Z,63.10
2023-03-17T01:25:43.419Z,63.30
2023-03-17T01:28:17.121Z,63.58
2023-03-17T01:30:49.560Z,63.37
2023-03-17T01:33:21.270Z,63.23
2023-03-17T01:35:51.763Z,63.26
2023-03-17T01:38:20.805Z,63.39
2023-03-17T01:40:50.077Z,63.60
2023-03-17T01:43:23.211Z,63.78
2023-03-17T01:50:06.667Z,63.55
2023-03-17T01:52:39.572Z,63.23
2023-03-17T01:55:14.615Z,63.50
2023-03-17T01:57:51.556Z,63.58
2023-03-17T02:00:21.015Z,63.71
2023-03-17T02:02:51.503Z,63.62
2023-03-17T02:05:26.650Z,63.18
2023-03-17T02:07:55.808Z,63.67
2023-03-17T02:10:30.386Z,63.63
2023-03-17T02:13:00.173Z,63.16
2023-03-17T02:15:38.033Z,62.50
2023-03-17T02:18:07.983Z,62.42
2023-03-17T02:20:40.221Z,62.14
2023-03-17T02:23:12.600Z,62.51
2023-03-17T02:25:42.744Z,62.64
2023-03-17T02:28:14.419Z,62.61
2023-03-17T02:30:43.455Z,62.40
2023-03-17T02:33:13.060Z,62.42
2023-03-17T02:35:42.485Z,62.36
2023-03-17T02:38:53.130Z,62.19
2023-03-17T02:45:03.555Z,62.92
2023-03-17T02:47:33.310Z,63.42
2023-03-17T02:50:02.282Z,63.41
2023-03-17T02:52:34.318Z,63.09
2023-03-17T02:55:08.480Z,62.84
2023-03-17T02:57:38.366Z,62.69
2023-03-17T03:00:08.575Z,62.62
2023-03-17T03:02:38.422Z,62.78
2023-03-17T03:05:09.025Z,62.69
2023-03-17T03:07:37.929Z,62.73
2023-03-17T03:10:08.086Z,62.76
2023-03-17T03:12:36.628Z,62.63
2023-03-17T03:15:23.716Z,62.03
2023-03-17T03:17:52.336Z,62.69
2023-03-17T03:20:22.198Z,62.84
2023-03-17T03:22:53.226Z,62.70
2023-03-17T03:25:22.390Z,62.78
2023-03-17T03:27:52.557Z,62.87
2023-03-17T03:30:21.868Z,63.15
2023-03-17T03:32:50.502Z,63.34
2023-03-17T03:35:20.173Z,63.45
2023-03-17T03:37:51.240Z,63.34
2023-03-17T03:40:21.226Z,63.56
2023-03-17T03:42:49.837Z,63.51
2023-03-17T03:45:18.390Z,63.83
2023-03-17T03:47:47.912Z,63.57
2023-03-17T03:50:16.455Z,63.52
2023-03-17T03:52:45.858Z,63.72
2023-03-17T03:55:18.299Z,63.83
2023-03-17T03:57:47.192Z,63.86
2023-03-17T04:00:18.049Z,64.01
2023-03-17T04:02:48.120Z,64.16
2023-03-17T04:05:18.720Z,64.36
2023-03-17T04:07:48.249Z,64.49
2023-03-17T04:10:17.131Z,64.36
2023-03-17T04:12:48.351Z,64.24
2023-03-17T04:15:18.110Z,64.21
2023-03-17T04:17:46.645Z,64.16
2023-03-17T04:20:15.615Z,63.67
2023-03-17T04:22:44.254Z,63.38
2023-03-17T04:25:14.451Z,63.43
2023-03-17T04:27:42.903Z,63.50
2023-03-17T04:30:14.001Z,63.77
2023-03-17T04:32:42.613Z,64.15
2023-03-17T04:35:16.621Z,64.40
2023-03-17T04:37:51.327Z,63.85
2023-03-17T04:40:26.867Z,63.35
2023-03-17T04:42:56.828Z,63.45
2023-03-17T04:45:26.280Z,63.35
2023-03-17T04:47:56.084Z,63.20
2023-03-17T04:50:27.879Z,63.60
2023-03-17T04:52:57.217Z,63.75
2023-03-17T04:55:27.994Z,63.68
2023-03-17T04:57:57.612Z,63.99
2023-03-17T05:00:26.329Z,64.20
2023-03-17T05:02:54.774Z,64.71
2023-03-17T05:05:25.837Z,65.33
2023-03-17T05:07:55.589Z,65.24
2023-03-17T05:10:24.265Z,65.18
2023-03-17T05:12:54.397Z,64.92
2023-03-17T05:15:23.530Z,64.83
2023-03-17T05:17:51.952Z,64.94
2023-03-17T05:20:21.640Z,64.44
2023-03-17T05:22:50.317Z,64.31
2023-03-17T05:25:26.976Z,64.39
2023-03-17T05:27:55.445Z,64.42
2023-03-17T05:30:26.994Z,64.17
2023-03-17T05:32:56.109Z,63.72
2023-03-17T05:35:27.885Z,63.98
2023-03-17T05:37:59.431Z,64.13
2023-03-17T05:40:31.912Z,64.26
2023-03-17T05:43:01.598Z,64.27
2023-03-17T05:45:30.816Z,64.25
2023-03-17T05:48:04.994Z,63.94
2023-03-17T05:50:42.282Z,63.49
2023-03-17T05:53:16.017Z,64.13
2023-03-17T05:55:45.038Z,64.33
2023-03-17T05:58:16.009Z,63.97
2023-03-17T06:00:44.701Z,62.73
2023-03-17T06:03:13.407Z,62.63
2023-03-17T06:05:43.447Z,63.29
2023-03-17T06:08:12.035Z,63.55
2023-03-17T06:10:42.584Z,63.53
2023-03-17T06:13:11.945Z,63.44
2023-03-17T06:15:43.315Z,63.62
2023-03-17T06:18:11.969Z,62.96
2023-03-17T06:20:44.555Z,63.01
2023-03-17T06:23:13.434Z,63.18
2023-03-17T06:25:41.977Z,62.65
2023-03-17T06:28:12.372Z,62.56
2023-03-17T06:30:44.752Z,62.53
2023-03-17T06:33:19.460Z,62.78
2023-03-17T06:35:48.550Z,62.92
2023-03-17T06:38:19.010Z,62.63
2023-03-17T06:40:53.360Z,62.60
2023-03-17T06:43:25.142Z,62.95
2023-03-17T06:45:56.627Z,63.24
2023-03-17T06:48:25.412Z,62.60
2023-03-17T06:50:53.859Z,62.64
2023-03-17T06:53:24.090Z,62.66
2023-03-17T06:55:53.299Z,62.85
2023-03-17T06:58:24.114Z,63.09
2023-03-17T07:01:00.743Z,62.23
2023-03-17T07:03:31.612Z,62.69
2023-03-17T07:06:01.140Z,62.67
2023-03-17T07:08:53.023Z,62.40
2023-03-17T07:11:35.780Z,62.05
2023-03-17T07:14:38.459Z,62.05
2023-03-17T07:17:09.123Z,62.06
2023-03-17T07:20:17.814Z,61.97
2023-03-17T07:22:49.885Z,61.30
2023-03-17T07:25:27.106Z,61.12
2023-03-17T07:28:23.903Z,60.95
2023-03-17T07:30:55.004Z,61.01
2023-03-17T07:33:27.490Z,61.15
2023-03-17T07:36:18.724Z,60.84
2023-03-17T07:39:12.192Z,60.26
2023-03-17T07:41:52.224Z,60.14
2023-03-17T07:44:41.804Z,59.93
2023-03-17T07:47:21.372Z,59.37
2023-03-17T07:50:36.964Z,59.86
2023-03-17T07:58:42.891Z,59.92
2023-03-17T08:01:33.210Z,60.13
2023-03-17T08:04:17.393Z,59.79
2023-03-17T08:07:00.054Z,59.49
2023-03-17T08:09:30.349Z,58.75
2023-03-17T08:12:01.962Z,58.84
2023-03-17T08:14:48.312Z,59.00
2023-03-17T08:17:35.874Z,59.19
2023-03-17T08:20:36.154Z,59.10
2023-03-17T08:23:19.190Z,59.03
2023-03-17T08:26:29.106Z,58.73
2023-03-17T08:29:09.987Z,58.28
2023-03-17T08:31:41.470Z,57.74
2023-03-17T08:34:13.462Z,58.23
2023-03-17T08:36:43.352Z,58.15
2023-03-17T08:39:12.186Z,57.96
2023-03-17T08:42:05.133Z,57.80
2023-03-17T08:44:47.126Z,58.62
2023-03-17T08:47:26.572Z,58.23
2023-03-17T08:50:14.431Z,57.75
2023-03-17T08:53:06.126Z,57.59
2023-03-17T08:55:39.986Z,57.69
2023-03-17T08:58:29.262Z,56.62
2023-03-17T09:01:01.458Z,56.44
2023-03-17T09:03:31.120Z,55.92
2023-03-17T09:06:01.158Z,56.15
2023-03-17T09:08:30.126Z,56.25
2023-03-17T09:10:58.966Z,56.31
2023-03-17T09:13:29.683Z,54.93
2023-03-17T09:16:00.179Z,55.02
2023-03-17T09:18:31.615Z,55.37
2023-03-17T09:21:23.352Z,55.76
2023-03-17T09:23:51.876Z,55.22
2023-03-17T09:26:20.735Z,55.03
2023-03-17T09:28:50.085Z,55.81
2023-03-17T09:31:20.052Z,56.01
2023-03-17T09:33:52.944Z,55.77
2023-03-17T09:36:21.922Z,55.05
2023-03-17T09:38:51.649Z,55.49
2023-03-17T09:41:38.176Z,55.55
2023-03-17T09:44:17.162Z,55.18
2023-03-17T09:46:49.034Z,55.03
2023-03-17T09:49:21.080Z,55.65
2023-03-17T09:51:52.321Z,55.86
2023-03-17T09:54:40.315Z,55.86
2023-03-17T09:57:13.992Z,55.98
2023-03-17T09:59:44.143Z,55.86
2023-03-17T10:02:19.263Z,55.69
2023-03-17T10:04:49.104Z,54.99
2023-03-17T10:07:19.988Z,55.04
2023-03-17T10:09:54.083Z,54.94
2023-03-17T10:12:27.901Z,54.04
2023-03-17T10:15:07.123Z,54.34
2023-03-17T10:17:37.095Z,54.42
2023-03-17T10:20:11.944Z,53.57
2023-03-17T10:22:42.992Z,53.95
2023-03-17T10:25:18.276Z,54.74
2023-03-17T10:27:53.241Z,54.09
2023-03-17T10:30:22.451Z,54.48
2023-03-17T10:32:52.608Z,54.20
2023-03-17T10:35:23.191Z,54.30
2023-03-17T10:37:58.913Z,54.31
2023-03-17T10:40:36.468Z,54.13
2023-03-17T10:43:08.325Z,54.62
2023-03-17T10:45:45.217Z,54.57
2023-03-17T10:48:17.772Z,54.87
2023-03-17T10:50:48.601Z,54.92
2023-03-17T10:53:28.471Z,55.18
2023-03-17T10:56:03.716Z,55.17
2023-03-17T10:58:43.835Z,55.30
2023-03-17T11:01:28.123Z,55.41
2023-03-17T11:03:57.815Z,55.25
2023-03-17T11:06:31.445Z,55.07
2023-03-17T11:09:02.718Z,54.58
2023-03-17T11:11:44.700Z,54.71
2023-03-17T11:14:14.654Z,54.66
2023-03-17T11:16:50.971Z,54.42
2023-03-17T11:19:43.522Z,54.60
2023-03-17T11:22:40.507Z,54.32
2023-03-17T11:25:17.863Z,53.64
2023-03-17T11:27:50.198Z,53.56
2023-03-17T11:30:37.610Z,53.83
2023-03-17T11:33:25.646Z,53.89
2023-03-17T11:36:01.282Z,53.84
2023-03-17T11:38:31.331Z,53.62
2023-03-17T11:41:18.437Z,54.18
2023-03-17T11:43:47.220Z,54.19
2023-03-17T11:46:19.175Z,53.89
2023-03-17T11:48:48.447Z,54.29
2023-03-17T11:51:23.142Z,54.22
2023-03-17T11:54:10.078Z,54.30
2023-03-17T11:56:39.831Z,54.23
2023-03-17T11:59:14.358Z,54.21
2023-03-17T12:01:49.389Z,54.34
2023-03-17T12:04:20.468Z,54.49
2023-03-17T12:06:53.402Z,54.57
2023-03-17T12:09:42.625Z,54.61
2023-03-17T12:12:11.470Z,54.43
2023-03-17T12:14:49.002Z,54.19
2023-03-17T12:17:27.126Z,54.84
2023-03-17T12:20:09.894Z,55.31
2023-03-17T12:22:43.358Z,55.16
2023-03-17T12:25:16.747Z,54.61
2023-03-17T12:27:54.859Z,54.77
2023-03-17T12:30:29.440Z,53.98
2023-03-17T12:33:01.570Z,54.34
2023-03-17T12:35:32.423Z,54.59
2023-03-17T12:38:03.236Z,54.19
2023-03-17T12:40:43.046Z,54.44
2023-03-17T12:43:18.601Z,54.98
2023-03-17T12:45:57.557Z,54.48
2023-03-17T12:48:30.019Z,54.80
2023-03-17T12:51:17.829Z,54.46
2023-03-17T12:53:48.031Z,54.75
2023-03-17T12:56:36.326Z,55.42
2023-03-17T12:59:09.328Z,55.57
2023-03-17T13:01:38.858Z,55.96
2023-03-17T13:04:07.436Z,55.96
2023-03-17T13:06:43.250Z,56.64
2023-03-17T13:09:31.832Z,56.61
2023-03-17T13:12:01.528Z,56.27
2023-03-17T13:14:31.183Z,56.17
2023-03-17T13:17:05.137Z,56.09
2023-03-17T13:19:33.823Z,55.92
2023-03-17T13:22:07.117Z,55.82
2023-03-17T13:24:47.864Z,56.04
2023-03-17T13:27:31.115Z,56.31
2023-03-17T13:30:01.558Z,56.22
2023-03-17T13:32:32.993Z,57.16
2023-03-17T13:35:01.867Z,56.76
2023-03-17T13:37:30.619Z,56.78
2023-03-17T13:40:11.276Z,57.17
2023-03-17T13:42:44.831Z,58.56
2023-03-17T13:45:33.622Z,58.33
2023-03-17T13:48:20.842Z,58.19
2023-03-17T13:50:49.249Z,58.43
2023-03-17T13:53:17.734Z,58.03
2023-03-17T13:56:23.650Z,57.96
2023-03-17T13:59:05.541Z,58.82
2023-03-17T14:02:00.297Z,58.49
2023-03-17T14:04:30.441Z,58.70
2023-03-17T14:06:59.959Z,58.72
2023-03-17T14:09:36.902Z,58.67
2023-03-17T14:12:26.509Z,58.90
2023-03-17T14:15:08.488Z,58.74
2023-03-17T14:17:45.173Z,58.28
2023-03-17T14:20:22.894Z,57.88
2023-03-17T14:23:02.254Z,58.20
2023-03-17T14:25:38.445Z,58.85
2023-03-17T14:28:15.109Z,59.01
2023-03-17T14:30:55.427Z,58.60
2023-03-17T14:33:26.750Z,58.46
2023-03-17T14:35:57.274Z,58.09
2023-03-17T14:38:28.079Z,58.15
2023-03-17T14:41:01.192Z,58.16
2023-03-17T14:43:30.943Z,57.89
2023-03-17T14:46:08.207Z,58.00
2023-03-17T14:48:38.213Z,58.20
2023-03-17T14:51:11.256Z,58.30
2023-03-17T14:53:40.853Z,58.31
2023-03-17T14:56:09.403Z,58.70
2023-03-17T14:58:48.861Z,59.10
2023-03-17T15:01:18.853Z,58.93
2023-03-17T15:03:57.379Z,59.31
2023-03-17T15:06:27.793Z,59.15
2023-03-17T15:09:00.776Z,59.72
2023-03-17T15:11:41.171Z,59.98
2023-03-17T15:14:40.672Z,60.93
2023-03-17T15:17:20.441Z,61.16
2023-03-17T15:19:57.592Z,61.17
2023-03-17T15:22:38.260Z,61.73
2023-03-17T15:25:28.798Z,62.04
2023-03-17T15:27:59.418Z,61.72
2023-03-17T15:30:46.247Z,61.72
2023-03-17T15:33:29.485Z,61.51
2023-03-17T15:36:00.525Z,61.60
2023-03-17T15:38:49.058Z,62.06
2023-03-17T15:41:19.855Z,62.32
2023-03-17T15:43:55.641Z,62.65
2023-03-17T15:46:25.178Z,61.77
2023-03-17T15:49:00.026Z,61.17
2023-03-17T15:51:35.849Z,61.50
2023-03-17T15:54:06.069Z,61.01
2023-03-17T15:56:38.835Z,61.01
2023-03-17T15:59:07.278Z,60.23
2023-03-17T16:01:36.688Z,60.35
2023-03-17T16:04:57.036Z,60.20
2023-03-17T16:07:27.346Z,60.75
2023-03-17T16:09:56.080Z,60.76
2023-03-17T16:12:28.154Z,60.01
2023-03-17T16:15:05.448Z,60.63
2023-03-17T16:17:39.545Z,60.92
2023-03-17T16:20:32.397Z,60.98
2023-03-17T16:23:14.924Z,61.51
2023-03-17T16:25:48.502Z,62.06
2023-03-17T16:28:21.198Z,61.82
2023-03-17T16:31:15.144Z,61.29
2023-03-17T16:33:55.380Z,61.26
2023-03-17T16:36:27.231Z,61.64
2023-03-17T16:38:58.068Z,62.10
2023-03-17T16:41:27.786Z,64.23
2023-03-17T16:44:01.943Z,61.73
2023-03-17T16:46:35.079Z,56.22
2023-03-17T16:49:07.773Z,57.49
2023-03-17T16:51:36.590Z,58.48
2023-03-17T16:54:06.806Z,59.72
2023-03-17T16:56:35.690Z,60.46
2023-03-17T16:59:14.422Z,60.80
2023-03-17T17:01:43.865Z,60.51
2023-03-17T17:04:14.182Z,60.33
2023-03-17T17:06:42.763Z,60.57
2023-03-17T17:09:11.681Z,60.27
2023-03-17T17:11:40.372Z,60.45
2023-03-17T17:14:09.163Z,60.68
2023-03-17T17:16:40.691Z,60.17
2023-03-17T17:19:16.958Z,60.09
2023-03-17T17:21:46.890Z,59.95
2023-03-17T17:24:15.855Z,60.29
2023-03-17T17:26:45.059Z,59.95
2023-03-17T17:29:15.152Z,60.22
2023-03-17T17:31:43.950Z,60.19
2023-03-17T17:34:15.424Z,60.00
2023-03-17T17:36:44.375Z,60.45
2023-03-17T17:39:20.626Z,60.31
2023-03-17T17:41:54.635Z,60.78
2023-03-17T17:44:23.355Z,60.94
2023-03-17T17:47:02.792Z,60.76
2023-03-17T17:49:32.309Z,59.89
2023-03-17T17:52:06.942Z,61.77
2023-03-17T17:54:39.911Z,62.70
2023-03-17T17:57:16.437Z,61.72
2023-03-17T17:59:54.372Z,59.21
2023-03-17T18:02:36.783Z,55.96
2023-03-17T18:05:14.353Z,54.69
2023-03-17T18:07:43.229Z,53.35
2023-03-17T18:10:19.025Z,54.69
2023-03-17T18:12:51.172Z,55.77
2023-03-17T18:15:24.161Z,56.71
2023-03-17T18:17:55.025Z,57.07
2023-03-17T18:20:24.253Z,57.25
2023-03-17T18:22:53.212Z,57.63
2023-03-17T18:25:25.661Z,58.03
2023-03-17T18:27:58.199Z,58.46
2023-03-17T18:30:28.697Z,58.45
2023-03-17T18:32:59.783Z,58.52
2023-03-17T18:35:29.684Z,58.49
2023-03-17T18:37:59.085Z,58.76
2023-03-17T18:40:28.803Z,58.90
2023-03-17T18:43:02.845Z,59.21
2023-03-17T18:45:34.284Z,59.78
2023-03-17T18:48:09.354Z,60.24
2023-03-17T18:50:42.409Z,60.18
2023-03-17T18:53:14.872Z,60.87
2023-03-17T18:55:52.120Z,60.07
2023-03-17T18:58:20.922Z,60.13
2023-03-17T19:00:53.675Z,60.85
2023-03-17T19:03:22.553Z,60.59
2023-03-17T19:05:51.935Z,60.59
2023-03-17T19:08:21.683Z,60.95
2023-03-17T19:10:50.786Z,60.79
2023-03-17T19:13:19.292Z,60.65
2023-03-17T19:15:52.392Z,60.75
2023-03-17T19:18:23.253Z,60.91
2023-03-17T19:20:53.785Z,61.42
2023-03-17T19:23:27.122Z,61.64
2023-03-17T19:25:57.016Z,61.64
2023-03-17T19:28:32.506Z,61.46
2023-03-17T19:31:25.123Z,60.87
2023-03-17T19:34:05.604Z,60.70
2023-03-17T19:37:01.876Z,60.55
2023-03-17T19:39:56.661Z,60.56
2023-03-17T19:47:11.632Z,60.50
2023-03-17T19:50:13.937Z,61.50
2023-03-17T19:52:50.068Z,61.63
2023-03-17T19:55:25.358Z,61.18
2023-03-17T19:57:58.175Z,61.38
2023-03-17T20:00:28.265Z,60.52
2023-03-17T20:02:57.001Z,60.51
2023-03-17T20:05:27.253Z,61.25
2023-03-17T20:08:01.961Z,61.20
2023-03-17T20:10:31.144Z,61.58
2023-03-17T20:13:08.958Z,62.12
2023-03-17T20:15:40.199Z,61.46
2023-03-17T20:18:11.501Z,61.87
2023-03-17T20:20:49.641Z,61.75
2023-03-17T20:23:18.844Z,61.82
2023-03-17T20:25:57.710Z,62.08
2023-03-17T20:28:32.084Z,61.57
2023-03-17T20:31:08.413Z,61.87
2023-03-17T20:33:46.419Z,61.60
2023-03-17T20:36:18.069Z,61.61
2023-03-17T20:38:52.055Z,61.71
2023-03-17T20:41:30.632Z,61.60
2023-03-17T20:44:05.788Z,61.89
2023-03-17T20:46:39.201Z,62.22
2023-03-17T20:54:31.315Z,61.57
2023-03-17T20:58:00.590Z,62.33
2023-03-17T21:00:36.805Z,62.09
2023-03-17T21:03:29.371Z,61.50
2023-03-17T21:05:59.385Z,61.69
2023-03-17T21:09:11.708Z,61.48
2023-03-17T21:50:08.156Z,62.42
2023-03-17T21:56:14.778Z,62.66
